createdAt,value
2018-12-13T00:01:04.793Z,47.17
2018-12-13T00:03:33.359Z,46.20
2018-12-13T00:06:02.331Z,48.60
2018-12-13T00:08:30.882Z,48.63
2018-12-13T00:10:59.456Z,53.50
2018-12-13T00:13:27.995Z,49.90
2018-12-13T00:15:56.562Z,47.50
2018-12-13T00:18:25.099Z,51.17
2018-12-13T00:20:53.686Z,50.80
2018-12-13T00:23:22.315Z,46.97
2018-12-13T00:25:50.973Z,55.77
2018-12-13T00:28:19.524Z,53.67
2018-12-13T00:30:51.006Z,48.80
2018-12-13T00:33:19.549Z,49.27
2018-12-13T00:35:48.243Z,49.60
2018-12-13T00:38:16.834Z,52.23
2018-12-13T00:40:45.772Z,47.30
2018-12-13T00:43:14.355Z,47.83
2018-12-13T00:45:43.207Z,53.53
2018-12-13T00:48:11.800Z,54.63
2018-12-13T00:50:40.411Z,57.30
2018-12-13T00:53:08.963Z,51.73
2018-12-13T00:55:37.547Z,54.63
2018-12-13T00:58:06.099Z,51.43
2018-12-13T01:00:34.731Z,50.43
2018-12-13T01:03:03.281Z,52.77
2018-12-13T01:05:31.863Z,61.83
2018-12-13T01:08:00.495Z,70.63
2018-12-13T01:10:29.066Z,55.30
2018-12-13T01:12:57.639Z,59.63
2018-12-13T01:15:28.254Z,54.50
2018-12-13T01:17:56.819Z,54.87
2018-12-13T01:20:25.399Z,55.00
2018-12-13T01:22:53.959Z,56.57
2018-12-13T01:25:22.654Z,55.70
2018-12-13T01:27:51.192Z,58.27
2018-12-13T01:30:19.768Z,59.17
2018-12-13T01:32:48.359Z,64.33
2018-12-13T01:35:16.942Z,63.83
2018-12-13T01:37:45.567Z,58.90
2018-12-13T01:40:14.339Z,71.10
2018-12-13T01:42:42.895Z,68.77
2018-12-13T01:45:11.665Z,76.90
2018-12-13T01:47:40.325Z,65.93
2018-12-13T01:50:09.071Z,62.00
2018-12-13T01:52:37.683Z,57.40
2018-12-13T01:55:06.283Z,56.47
2018-12-13T01:57:34.875Z,51.63
2018-12-13T02:00:03.467Z,45.17
2018-12-13T02:02:32.020Z,51.77
2018-12-13T02:05:00.608Z,55.90
2018-12-13T02:07:29.177Z,60.60
2018-12-13T02:09:57.795Z,58.07
2018-12-13T02:12:26.346Z,54.90
2018-12-13T02:14:54.928Z,62.80
2018-12-13T02:17:23.507Z,59.50
2018-12-13T02:19:52.090Z,60.80
2018-12-13T02:22:20.661Z,58.30
2018-12-13T02:24:49.431Z,64.23
2018-12-13T02:27:18.038Z,64.67
2018-12-13T02:29:47.302Z,60.93
2018-12-13T02:32:15.860Z,62.37
2018-12-13T02:34:44.683Z,63.43
2018-12-13T02:37:13.249Z,62.80
2018-12-13T02:39:42.051Z,64.60
2018-12-13T02:42:10.594Z,67.10
2018-12-13T02:44:39.160Z,68.13
2018-12-13T02:47:07.724Z,68.83
2018-12-13T02:49:36.325Z,70.37
2018-12-13T02:52:04.879Z,67.90
2018-12-13T02:54:33.550Z,73.20
2018-12-13T02:57:02.112Z,71.40
2018-12-13T02:59:30.709Z,81.40
2018-12-13T03:01:59.305Z,77.37
2018-12-13T03:04:28.027Z,74.73
2018-12-13T03:06:56.594Z,74.07
2018-12-13T03:09:25.281Z,75.03
2018-12-13T03:11:53.963Z,81.23
2018-12-13T03:14:22.542Z,88.43
2018-12-13T03:16:51.110Z,84.07
2018-12-13T03:19:19.711Z,87.90
2018-12-13T03:21:48.286Z,83.00
2018-12-13T03:24:17.131Z,79.87
2018-12-13T03:26:45.706Z,77.10
2018-12-13T03:29:14.435Z,83.87
2018-12-13T03:31:42.991Z,83.87
2018-12-13T03:34:11.579Z,84.20
2018-12-13T03:36:40.272Z,80.67
2018-12-13T03:39:09.180Z,83.57
2018-12-13T03:41:37.727Z,78.73
2018-12-13T03:44:06.555Z,81.33
2018-12-13T03:46:35.122Z,79.90
2018-12-13T03:49:03.944Z,84.63
2018-12-13T03:51:32.547Z,81.67
2018-12-13T03:54:01.131Z,83.80
2018-12-13T03:56:29.782Z,86.30
2018-12-13T03:58:58.369Z,89.33
2018-12-13T04:01:26.990Z,85.67
2018-12-13T04:03:55.736Z,90.47
2018-12-13T04:06:24.322Z,93.60
2018-12-13T04:08:53.190Z,93.37
2018-12-13T04:11:21.737Z,96.13
2018-12-13T04:13:50.331Z,96.57
2018-12-13T04:16:18.889Z,89.83
2018-12-13T04:18:47.449Z,99.13
2018-12-13T04:21:15.995Z,88.10
2018-12-13T04:23:44.545Z,88.30
2018-12-13T04:26:13.107Z,90.20
2018-12-13T04:28:41.729Z,89.00
2018-12-13T04:31:10.371Z,90.97
2018-12-13T04:33:38.945Z,83.93
2018-12-13T04:36:07.509Z,83.43
2018-12-13T04:38:36.112Z,77.40
2018-12-13T04:41:04.696Z,73.40
2018-12-13T04:43:33.291Z,70.20
2018-12-13T04:46:01.857Z,74.40
2018-12-13T04:48:30.448Z,81.67
2018-12-13T04:50:59.016Z,70.33
2018-12-13T04:53:27.654Z,68.87
2018-12-13T04:55:56.255Z,67.60
2018-12-13T04:58:25.135Z,66.93
2018-12-13T05:00:54.536Z,70.70
2018-12-13T05:03:23.107Z,67.03
2018-12-13T05:05:51.781Z,67.63
2018-12-13T05:08:20.465Z,73.77
2018-12-13T05:10:52.650Z,62.37
2018-12-13T05:13:21.486Z,66.33
2018-12-13T05:15:50.111Z,67.00
2018-12-13T05:18:18.751Z,79.33
2018-12-13T05:20:47.303Z,72.30
2018-12-13T05:23:16.123Z,67.30
2018-12-13T05:25:44.692Z,65.43
2018-12-13T05:28:13.287Z,68.03
2018-12-13T05:30:41.855Z,63.77
2018-12-13T05:33:10.513Z,69.97
2018-12-13T05:35:39.081Z,72.43
2018-12-13T05:38:07.867Z,74.13
2018-12-13T05:40:36.426Z,77.17
2018-12-13T05:43:05.056Z,79.27
2018-12-13T05:45:33.632Z,71.80
2018-12-13T05:48:02.411Z,76.27
2018-12-13T05:50:30.969Z,73.87
2018-12-13T05:52:59.508Z,74.13
2018-12-13T05:55:28.070Z,71.10
2018-12-13T05:57:56.866Z,80.10
2018-12-13T06:00:25.411Z,79.73
2018-12-13T06:02:54.135Z,76.10
2018-12-13T06:05:22.646Z,80.27
2018-12-13T06:07:54.836Z,75.67
2018-12-13T06:10:21.875Z,83.10
2018-12-13T06:12:50.412Z,84.90
2018-12-13T06:15:18.993Z,85.90
2018-12-13T06:17:47.571Z,82.03
2018-12-13T06:20:16.177Z,83.27
2018-12-13T06:22:44.898Z,78.57
2018-12-13T06:25:13.443Z,75.23
2018-12-13T06:27:41.981Z,84.60
2018-12-13T06:30:10.480Z,85.10
2018-12-13T06:32:39.250Z,85.83
2018-12-13T06:35:07.790Z,81.50
2018-12-13T06:37:36.439Z,79.57
2018-12-13T06:40:05.472Z,75.87
2018-12-13T06:42:34.061Z,76.70
2018-12-13T06:45:02.632Z,76.43
2018-12-13T06:47:31.368Z,86.50
2018-12-13T06:49:59.981Z,83.03
2018-12-13T06:52:28.514Z,82.10
2018-12-13T06:54:57.059Z,87.30
2018-12-13T06:57:25.612Z,82.23
2018-12-13T06:59:54.123Z,92.83
2018-12-13T07:02:22.914Z,93.37
2018-12-13T07:04:51.463Z,88.20
2018-12-13T07:07:20.104Z,85.30
2018-12-13T07:09:48.649Z,98.73
2018-12-13T07:12:17.230Z,97.53
2018-12-13T07:14:45.771Z,96.27
2018-12-13T07:17:14.387Z,107.23
2018-12-13T07:19:42.996Z,111.00
2018-12-13T07:22:11.710Z,119.80
2018-12-13T07:24:40.613Z,112.47
2018-12-13T07:27:09.515Z,109.03
2018-12-13T07:29:38.051Z,115.87
2018-12-13T07:32:06.875Z,116.50
2018-12-13T07:34:35.400Z,114.77
2018-12-13T07:37:03.966Z,112.40
2018-12-13T07:39:32.483Z,108.73
2018-12-13T07:42:01.042Z,113.80
2018-12-13T07:44:29.573Z,115.43
2018-12-13T07:46:58.103Z,107.30
2018-12-13T07:49:26.662Z,103.50
2018-12-13T07:51:55.287Z,112.70
2018-12-13T07:54:23.922Z,124.10
2018-12-13T07:56:52.483Z,125.43
2018-12-13T07:59:21.044Z,111.60
2018-12-13T08:01:49.608Z,113.53
2018-12-13T08:04:18.147Z,107.20
2018-12-13T08:06:46.700Z,120.93
2018-12-13T08:09:15.335Z,128.93
2018-12-13T08:11:44.036Z,116.07
2018-12-13T08:14:12.569Z,125.93
2018-12-13T08:16:41.340Z,126.47
2018-12-13T08:19:09.906Z,129.10
2018-12-13T08:21:38.576Z,131.43
2018-12-13T08:24:07.202Z,113.67
2018-12-13T08:26:35.785Z,117.57
2018-12-13T08:29:04.320Z,127.03
2018-12-13T08:31:32.863Z,107.30
2018-12-13T08:34:01.388Z,120.83
2018-12-13T08:36:30.147Z,122.73
2018-12-13T08:38:58.686Z,115.70
2018-12-13T08:41:27.262Z,124.50
2018-12-13T08:43:55.788Z,124.20
2018-12-13T08:46:24.618Z,122.43
2018-12-13T08:48:53.181Z,116.10
2018-12-13T08:51:21.727Z,127.00
2018-12-13T08:53:50.272Z,119.30
2018-12-13T08:56:18.912Z,118.77
2018-12-13T08:58:47.450Z,124.43
2018-12-13T09:01:16.041Z,120.60
2018-12-13T09:03:44.608Z,119.27
2018-12-13T09:06:13.156Z,109.77
2018-12-13T09:08:41.778Z,111.87
2018-12-13T09:11:10.577Z,109.20
2018-12-13T09:13:39.126Z,123.20
2018-12-13T09:16:07.681Z,115.00
2018-12-13T09:18:36.238Z,126.43
2018-12-13T09:21:04.814Z,103.93
2018-12-13T09:23:33.399Z,97.33
2018-12-13T09:26:02.082Z,104.77
2018-12-13T09:28:30.609Z,104.17
2018-12-13T09:30:59.261Z,95.70
2018-12-13T09:33:27.791Z,98.40
2018-12-13T09:35:56.561Z,94.67
2018-12-13T09:38:25.100Z,98.90
2018-12-13T09:40:53.669Z,94.33
2018-12-13T09:43:22.210Z,112.37
2018-12-13T09:45:50.779Z,92.17
2018-12-13T09:48:19.311Z,96.40
2018-12-13T09:50:48.022Z,86.83
2018-12-13T09:53:16.612Z,88.13
2018-12-13T09:55:45.199Z,89.83
2018-12-13T09:58:13.846Z,87.00
2018-12-13T10:00:42.637Z,94.10
2018-12-13T10:03:11.174Z,86.30
2018-12-13T10:05:39.741Z,94.43
2018-12-13T10:08:08.304Z,85.20
2018-12-13T10:10:36.997Z,86.63
2018-12-13T10:13:05.540Z,86.63
2018-12-13T10:15:34.105Z,87.43
2018-12-13T10:18:02.696Z,77.93
2018-12-13T10:20:31.307Z,75.23
2018-12-13T10:22:59.812Z,83.97
2018-12-13T10:25:28.356Z,83.13
2018-12-13T10:27:56.878Z,84.30
2018-12-13T10:30:25.463Z,84.67
2018-12-13T10:32:54.048Z,90.83
2018-12-13T10:35:22.678Z,100.33
2018-12-13T10:37:51.207Z,79.60
2018-12-13T10:40:26.455Z,83.00
2018-12-13T10:42:55.006Z,81.27
2018-12-13T10:45:23.762Z,74.23
2018-12-13T10:47:52.296Z,77.80
2018-12-13T10:50:20.851Z,80.27
2018-12-13T10:52:49.383Z,77.77
2018-12-13T10:55:17.923Z,65.53
2018-12-13T10:57:46.438Z,76.47
2018-12-13T11:00:20.504Z,65.83
2018-12-13T11:03:04.465Z,70.93
2018-12-13T11:05:33.020Z,72.97
2018-12-13T11:08:01.540Z,71.03
2018-12-13T11:10:30.312Z,72.63
2018-12-13T11:12:58.825Z,73.80
2018-12-13T11:15:27.371Z,76.77
2018-12-13T11:17:55.889Z,69.10
2018-12-13T11:20:24.444Z,76.77
2018-12-13T11:22:53.021Z,67.67
2018-12-13T11:25:21.838Z,69.93
2018-12-13T11:28:25.677Z,71.83
2018-12-13T11:30:54.415Z,66.53
2018-12-13T11:33:23.015Z,74.57
2018-12-13T11:35:51.725Z,75.07
2018-12-13T11:38:20.354Z,71.67
2018-12-13T11:40:48.922Z,75.10
2018-12-13T11:43:17.452Z,76.83
2018-12-13T11:45:46.072Z,71.33
2018-12-13T11:48:15.181Z,78.93
2018-12-13T11:50:43.931Z,105.17
2018-12-13T11:53:12.467Z,107.90
2018-12-13T11:55:41.034Z,108.10
2018-12-13T11:58:12.235Z,104.67
2018-12-13T12:00:40.787Z,95.87
2018-12-13T12:03:09.318Z,104.10
2018-12-13T12:05:37.851Z,96.80
2018-12-13T12:08:06.386Z,97.00
2018-12-13T12:10:34.935Z,87.73
2018-12-13T12:13:03.474Z,89.87
2018-12-13T12:15:32.066Z,91.70
2018-12-13T12:18:00.595Z,91.57
2018-12-13T12:20:29.148Z,91.43
2018-12-13T12:22:57.669Z,97.43
2018-12-13T12:25:26.265Z,110.53
2018-12-13T12:27:54.836Z,99.67
2018-12-13T12:30:23.380Z,98.97
2018-12-13T12:32:51.958Z,93.77
2018-12-13T12:35:20.503Z,94.33
2018-12-13T12:37:49.058Z,88.77
2018-12-13T12:40:17.858Z,99.77
2018-12-13T12:42:46.394Z,91.63
2018-12-13T12:45:15.044Z,95.00
2018-12-13T12:47:43.607Z,101.27
2018-12-13T12:50:12.384Z,104.50
2018-12-13T12:52:40.916Z,97.10
2018-12-13T12:55:09.790Z,96.00
2018-12-13T12:57:38.323Z,102.87
2018-12-13T13:00:08.497Z,109.53
2018-12-13T13:02:37.594Z,103.80
2018-12-13T13:05:06.570Z,107.00
2018-12-13T13:07:35.188Z,101.90
2018-12-13T13:10:03.953Z,110.00
2018-12-13T13:12:32.485Z,105.23
2018-12-13T13:15:01.118Z,111.80
2018-12-13T13:17:29.700Z,113.80
2018-12-13T13:19:58.283Z,115.83
2018-12-13T13:22:26.867Z,108.73
2018-12-13T13:24:55.434Z,118.77
2018-12-13T13:27:24.021Z,104.80
2018-12-13T13:29:52.575Z,112.00
2018-12-13T13:32:21.120Z,101.73
2018-12-13T13:34:49.718Z,100.17
2018-12-13T13:37:18.902Z,103.67
2018-12-13T13:39:47.714Z,105.50
2018-12-13T13:42:16.259Z,106.97
2018-12-13T13:44:45.440Z,108.67
2018-12-13T13:47:13.975Z,113.73
2018-12-13T13:49:42.575Z,120.00
2018-12-13T13:52:11.120Z,103.93
2018-12-13T13:54:39.711Z,110.57
2018-12-13T13:57:08.502Z,113.53
2018-12-13T13:59:37.099Z,111.17
2018-12-13T14:02:05.724Z,112.60
2018-12-13T14:04:34.304Z,116.00
2018-12-13T14:07:02.845Z,117.30
2018-12-13T14:09:37.709Z,113.20
2018-12-13T14:12:02.020Z,133.97
2018-12-13T14:14:30.588Z,130.23
2018-12-13T14:16:59.165Z,131.87
2018-12-13T14:19:27.769Z,116.70
2018-12-13T14:21:56.313Z,104.83
2018-12-13T14:24:25.326Z,115.37
2018-12-13T14:26:53.900Z,116.70
2018-12-13T14:29:22.523Z,123.53
2018-12-13T14:31:51.079Z,114.17
2018-12-13T14:34:19.673Z,112.03
2018-12-13T14:36:48.235Z,111.57
2018-12-13T14:39:16.846Z,115.53
2018-12-13T14:41:45.398Z,119.47
2018-12-13T14:44:14.039Z,134.10
2018-12-13T14:46:42.603Z,125.97
2018-12-13T14:49:11.357Z,132.80
2018-12-13T14:51:40.048Z,135.43
2018-12-13T14:54:08.612Z,138.30
2018-12-13T14:56:37.189Z,151.97
2018-12-13T14:59:05.767Z,155.73
2018-12-13T15:01:34.494Z,154.07
2018-12-13T15:04:03.116Z,147.13
2018-12-13T15:06:31.675Z,148.23
2018-12-13T15:09:00.265Z,153.83
2018-12-13T15:11:28.805Z,144.10
2018-12-13T15:13:57.390Z,153.87
2018-12-13T15:16:25.952Z,150.27
2018-12-13T15:18:54.903Z,165.33
2018-12-13T15:21:23.454Z,167.50
2018-12-13T15:23:52.006Z,171.40
2018-12-13T15:26:20.616Z,164.67
2018-12-13T15:28:49.306Z,164.77
2018-12-13T15:31:17.940Z,167.60
2018-12-13T15:33:46.752Z,170.03
2018-12-13T15:36:15.324Z,180.03
2018-12-13T15:38:43.905Z,173.43
2018-12-13T15:41:12.437Z,179.53
2018-12-13T15:43:41.010Z,170.70
2018-12-13T15:46:10.322Z,170.83
2018-12-13T15:48:39.265Z,152.07
2018-12-13T15:51:08.009Z,168.13
2018-12-13T15:53:36.573Z,165.83
2018-12-13T15:56:05.295Z,168.87
2018-12-13T15:58:33.836Z,177.23
2018-12-13T16:01:02.465Z,175.50
2018-12-13T16:03:31.521Z,195.30
2018-12-13T16:06:00.220Z,190.17
2018-12-13T16:08:29.325Z,167.30
2018-12-13T16:10:58.130Z,181.93
2018-12-13T16:13:27.063Z,180.97
2018-12-13T16:15:55.758Z,199.93
2018-12-13T16:18:24.664Z,200.97
2018-12-13T16:20:53.330Z,201.10
2018-12-13T16:23:22.349Z,194.97
2018-12-13T16:25:51.188Z,189.63
2018-12-13T16:28:19.886Z,182.17
2018-12-13T16:30:48.723Z,179.60
2018-12-13T16:33:17.499Z,171.67
2018-12-13T16:35:46.382Z,171.43
2018-12-13T16:38:15.241Z,182.73
2018-12-13T16:40:44.017Z,182.90
2018-12-13T16:43:12.626Z,169.63
2018-12-13T16:45:41.467Z,182.50
2018-12-13T16:48:10.505Z,167.30
2018-12-13T16:50:39.148Z,172.37
2018-12-13T16:53:07.791Z,178.23
2018-12-13T16:55:36.535Z,178.17
2018-12-13T16:58:05.232Z,168.37
2018-12-13T17:00:33.791Z,183.53
2018-12-13T17:03:39.993Z,179.07
2018-12-13T17:06:08.644Z,165.20
2018-12-13T17:08:37.483Z,252.67
2018-12-13T17:11:09.418Z,308.40
2018-12-13T17:13:43.154Z,311.80
2018-12-13T17:16:13.273Z,301.30
2018-12-13T17:18:42.553Z,298.50
2018-12-13T17:21:13.500Z,290.60
2018-12-13T17:23:42.420Z,268.53
2018-12-13T17:26:10.995Z,274.30
2018-12-13T17:28:40.260Z,272.97
2018-12-13T17:31:08.819Z,235.67
2018-12-13T17:33:37.482Z,261.77
2018-12-13T17:36:06.101Z,272.67
2018-12-13T17:38:34.685Z,257.83
2018-12-13T17:41:03.292Z,249.27
2018-12-13T17:43:31.887Z,217.13
2018-12-13T17:46:00.460Z,241.77
2018-12-13T17:48:29.097Z,223.60
2018-12-13T17:50:57.649Z,216.87
2018-12-13T17:53:26.263Z,218.47
2018-12-13T17:55:54.837Z,193.90
2018-12-13T17:58:23.413Z,210.07
2018-12-13T18:00:51.990Z,195.80
2018-12-13T18:03:20.558Z,199.87
2018-12-13T18:05:49.139Z,185.23
2018-12-13T18:08:17.724Z,203.33
2018-12-13T18:10:46.291Z,235.20
2018-12-13T18:13:14.973Z,239.93
2018-12-13T18:15:43.543Z,226.13
2018-12-13T18:18:12.376Z,220.07
2018-12-13T18:20:41.063Z,231.10
2018-12-13T18:23:09.715Z,206.07
2018-12-13T18:25:38.445Z,215.83
2018-12-13T18:28:07.049Z,217.00
2018-12-13T18:30:35.647Z,209.50
2018-12-13T18:33:04.472Z,217.70
2018-12-13T18:35:33.161Z,235.33
2018-12-13T18:38:01.857Z,235.03
2018-12-13T18:40:35.613Z,245.87
2018-12-13T18:43:01.300Z,250.03
2018-12-13T18:45:34.081Z,242.40
2018-12-13T18:48:02.972Z,254.97
2018-12-13T18:50:31.507Z,218.10
2018-12-13T18:53:00.355Z,204.93
2018-12-13T18:55:28.907Z,210.00
2018-12-13T18:57:57.523Z,196.93
2018-12-13T19:00:26.077Z,202.03
2018-12-13T19:02:54.706Z,225.53
2018-12-13T19:05:23.259Z,210.27
2018-12-13T19:07:52.083Z,225.37
2018-12-13T19:10:20.844Z,220.43
2018-12-13T19:12:49.642Z,241.93
2018-12-13T19:15:18.210Z,260.67
2018-12-13T19:17:46.851Z,300.47
2018-12-13T19:20:15.478Z,306.33
2018-12-13T19:22:44.117Z,307.03
2018-12-13T19:25:12.864Z,296.70
2018-12-13T19:27:41.510Z,298.73
2018-12-13T19:30:10.299Z,305.50
2018-12-13T19:32:38.917Z,272.53
2018-12-13T19:35:07.954Z,271.40
2018-12-13T19:37:36.793Z,277.23
2018-12-13T19:40:05.985Z,272.43
2018-12-13T19:42:34.697Z,282.33
2018-12-13T19:45:03.312Z,303.83
2018-12-13T19:47:32.050Z,296.47
2018-12-13T19:50:00.808Z,273.23
2018-12-13T19:52:29.394Z,287.97
2018-12-13T19:54:58.173Z,269.03
2018-12-13T19:57:27.441Z,280.17
2018-12-13T19:59:56.208Z,386.07
2018-12-13T20:02:25.761Z,390.37
2018-12-13T20:04:54.664Z,421.40
2018-12-13T20:07:23.486Z,410.20
2018-12-13T20:09:52.415Z,378.37
2018-12-13T20:12:21.464Z,314.37
2018-12-13T20:14:50.607Z,321.90
2018-12-13T20:17:19.543Z,293.20
2018-12-13T20:19:48.177Z,273.43
2018-12-13T20:22:16.770Z,267.10
2018-12-13T20:24:45.376Z,230.10
2018-12-13T20:27:14.040Z,226.40
2018-12-13T20:29:42.678Z,209.73
2018-12-13T20:32:11.774Z,217.70
2018-12-13T20:34:41.090Z,212.23
2018-12-13T20:37:09.866Z,207.17
2018-12-13T20:39:38.444Z,194.37
2018-12-13T20:42:07.365Z,186.93
2018-12-13T20:44:36.012Z,181.53
2018-12-13T20:47:05.450Z,187.83
2018-12-13T20:49:34.005Z,178.53
2018-12-13T20:52:02.581Z,186.93
2018-12-13T20:54:31.159Z,173.83
2018-12-13T20:56:59.967Z,164.10
2018-12-13T20:59:28.786Z,167.37
2018-12-13T21:01:57.827Z,167.63
2018-12-13T21:04:26.721Z,166.43
2018-12-13T21:07:00.659Z,159.93
2018-12-13T21:09:29.501Z,158.07
2018-12-13T21:11:58.470Z,167.53
2018-12-13T21:14:27.230Z,179.37
2018-12-13T21:16:59.979Z,169.60
2018-12-13T21:19:27.078Z,160.60
2018-12-13T21:21:55.748Z,170.00
2018-12-13T21:24:24.913Z,172.10
2018-12-13T21:26:54.565Z,191.17
2018-12-13T21:29:23.451Z,251.93
2018-12-13T21:31:52.334Z,254.80
2018-12-13T21:34:21.215Z,228.03
2018-12-13T21:36:49.887Z,258.90
2018-12-13T21:39:18.590Z,291.77
2018-12-13T21:41:47.359Z,290.17
2018-12-13T21:44:16.096Z,287.37
2018-12-13T21:46:44.835Z,306.43
2018-12-13T21:49:13.522Z,308.20
2018-12-13T21:51:42.447Z,279.23
2018-12-13T21:54:11.461Z,277.27
2018-12-13T21:56:41.331Z,247.47
2018-12-13T21:59:10.220Z,223.27
2018-12-13T22:01:39.041Z,227.93
2018-12-13T22:04:07.951Z,219.27
2018-12-13T22:06:36.793Z,211.97
2018-12-13T22:09:07.595Z,204.97
2018-12-13T22:11:36.541Z,220.27
2018-12-13T22:14:05.295Z,212.57
2018-12-13T22:16:33.902Z,227.50
2018-12-13T22:19:02.751Z,213.07
2018-12-13T22:21:31.406Z,226.53
2018-12-13T22:23:59.966Z,234.40
2018-12-13T22:26:29.640Z,230.73
2018-12-13T22:28:58.191Z,227.80
2018-12-13T22:31:27.092Z,224.67
2018-12-13T22:33:55.887Z,229.77
2018-12-13T22:36:24.604Z,234.57
2018-12-13T22:38:53.141Z,218.50
2018-12-13T22:41:26.354Z,228.07
2018-12-13T22:43:52.800Z,227.23
2018-12-13T22:46:21.469Z,212.53
2018-12-13T22:48:50.121Z,234.37
2018-12-13T22:51:18.970Z,220.03
2018-12-13T22:53:47.617Z,204.07
2018-12-13T22:56:16.318Z,208.30
2018-12-13T22:58:44.926Z,201.57
2018-12-13T23:01:16.666Z,207.63
2018-12-13T23:03:45.444Z,223.73
2018-12-13T23:06:14.564Z,209.53
2018-12-13T23:08:43.241Z,200.83
2018-12-13T23:11:12.357Z,198.67
2018-12-13T23:13:41.040Z,201.00
2018-12-13T23:16:09.651Z,205.97
2018-12-13T23:18:38.240Z,205.80
2018-12-13T23:21:07.175Z,205.00
2018-12-13T23:23:35.796Z,206.13
2018-12-13T23:26:04.429Z,204.50
2018-12-13T23:28:33.037Z,198.10
2018-12-13T23:31:01.876Z,189.70
2018-12-13T23:33:30.437Z,193.73
2018-12-13T23:35:59.047Z,193.67
2018-12-13T23:38:27.917Z,189.07
2018-12-13T23:40:56.515Z,190.80
2018-12-13T23:43:25.117Z,188.77
2018-12-13T23:45:53.723Z,181.63
2018-12-13T23:48:22.275Z,191.90
2018-12-13T23:50:50.875Z,168.90
2018-12-13T23:53:19.456Z,172.93
2018-12-13T23:55:48.048Z,186.87
2018-12-13T23:58:16.601Z,201.87
